Greenough, Montana
Current Conditions -  °F | °C
As of 8:53 PM on Sunday 25 Jan 2015 (Local Time) from KMSO Reporting Station
Clear Clear  
Wind Chill: 40°   Ceiling: Unl
Heat Index: 40°   Visibility: 10mi
Dew Point: 32°   Wind: 3mph
Humidity: 73%   Direction: NA
Pressure: 30.25"   Gusts: NA
Location:  47.1°N, 113.36°W
Report Text: KMSO 260353Z VRB03KT 10SM CLR 04/00 A3025 RMK AO2 SLP264 T00440000
Loading
Personal Weather Stations






























Interactive Weather Map New forecast layout! Learn more

10-Day Weather Forecast

Advertisements
Track Severe Weather on mobile